FW1688 Weather Reports


Display with metric or nautical units.
time (UTC)temp
F
wind
direction
speed
MPH
gust
MPH
rain 1hr
in
rain 24hr
in
rain mn
in
humidity
%
barometer
mb
20210307044535 64 30 1.0 5.0 0.10 2.00 2.00 73 1013.5
20210307043031 64 349 0.0 5.0 0.10 2.00 2.00 73 1013.7
20210307041543 65 343 1.0 5.0 0.05 1.95 1.95 73 1013.7
20210307040059 65 37 0.0 3.0 0.02 1.92 1.92 73 1013.9
20210307034528 65 342 0.0 4.0 0.00 1.90 1.90 74 1013.9
20210307033238 65 47 0.0 1.0 0.00 1.90 1.90 74 1013.7
20210307031540 65 43 0.0 2.0 0.01 1.90 1.90 74 1013.8
20210307030056 65 43 0.0 4.0 0.17 1.90 1.90 74 1013.7
20210307024551 64 105 0.0 1.0 0.22 1.90 1.90 74 1013.5
20210307023158 64 51 0.0 4.0 0.36 1.90 1.90 74 1013.6
20210307021533 64 41 0.0 3.0 0.37 1.89 1.89 74 1013.6
20210307020134 64 4 0.0 4.0 0.21 1.73 1.73 74 1013.9
20210307014540 64 54 0.0 5.0 0.15 1.67 1.67 74 1013.4
20210307013029 64 44 1.0 4.0 0.02 1.54 1.54 74 1012.9
20210307011520 64 60 0.0 6.0 0.00 1.52 1.52 74 1012.6
20210307010140 63 28 2.0 11.0 0.09 1.52 1.52 74 1012.9
20210307004527 63 53 4.0 9.0 0.12 1.52 1.52 74 1012.8
20210307003021 63 44 0.0 5.0 0.21 1.52 1.52 74 1013.0
20210307000157 64 18 5.0 12.0 0.13 1.43 1.43 74 1013.3
20210306234726 64 345 0.0 3.0 0.10 1.40 1.40 74 1012.7
20210306233202 64 289 2.0 7.0 0.04 1.31 1.31 74 1012.6
20210306231913 63 49 3.0 9.0 0.04 1.31 1.31 74 1011.6
20210306230302 63 58 3.0 10.0 0.03 1.30 1.30 74 1011.4
20210306224634 63 58 6.0 11.0 0.04 1.30 1.30 74 1011.1
20210306223212 63 87 5.0 14.0 0.07 1.27 1.27 74 1011.4
20210306221654 63 22 8.0 15.0 0.40 1.27 1.27 74 1010.9
20210306220144 63 41 9.0 20.0 1.03 1.27 1.27 74 1011.3
20210306214733 64 18 10.0 19.0 1.12 1.26 1.26 73 1011.4
20210306213207 67 357 4.0 10.0 1.08 1.20 1.20 73 1011.0
20210306211719 68 324 5.0 10.0 0.78 0.87 0.87 73 1011.2
20210306210226 69 341 6.0 12.0 0.17 0.24 0.24 72 1010.7
20210306204721 70 63 0.0 2.0 0.13 0.13 0.13 73 1010.2
20210306203209 70 105 1.0 5.0 0.12 0.12 0.12 73 1010.6
20210306201629 70 88 0.0 2.0 0.09 0.09 0.09 72 1010.8
20210306200148 72 156 2.0 8.0 0.07 0.07 0.07 70 1011.1
20210306194559 74 123 0.0 7.0 0.00 0.00 0.00 65 1011.6
20210306193050 75 142 2.0 8.0 0.00 0.00 0.00 63 1011.7
20210306191556 75 138 3.0 7.0 0.00 0.00 0.00 62 1011.6
20210306190125 75 143 3.0 8.0 0.00 0.00 0.00 61 1011.8
20210306184633 76 176 5.0 13.0 0.00 0.00 0.00 59 1012.0
20210306183231 77 128 6.0 15.0 0.00 0.00 0.00 57 1012.2
20210306181605 77 184 6.0 12.0 0.00 0.00 0.00 57 1012.3
20210306180126 77 139 6.0 12.0 0.00 0.00 0.00 56 1012.5
20210306174623 78 140 5.0 11.0 0.00 0.00 0.00 55 1012.7
20210306173155 78 152 5.0 11.0 0.00 0.00 0.00 53 1012.8
20210306171546 77 165 5.0 11.0 0.00 0.00 0.00 52 1013.1
20210306170343 77 153 4.0 8.0 0.00 0.00 0.00 53 1013.3
20210306164635 77 124 5.0 11.0 0.00 0.00 0.00 52 1013.6
20210306163043 77 167 2.0 11.0 0.00 0.00 0.00 53 1013.5
20210306161628 77 139 2.0 10.0 0.00 0.00 0.00 52 1013.4
20210306160138 77 120 5.0 9.0 0.00 0.00 0.00 52 1013.3
20210306154637 77 122 3.0 11.0 0.00 0.00 0.00 54 1013.7
20210306153053 76 151 3.0 10.0 0.00 0.00 0.00 54 1014.1
20210306151559 75 123 0.0 7.0 0.00 0.00 0.00 54 1014.4
20210306150041 75 113 0.0 7.0 0.00 0.00 0.00 55 1014.6
20210306144526 76 58 1.0 6.0 0.00 0.00 0.00 53 1014.8
20210306143040 74 120 1.0 6.0 0.00 0.00 0.00 55 1014.9
20210306141522 73 126 0.0 4.0 0.00 0.00 0.00 58 1014.9
20210306140019 73 110 1.0 8.0 0.00 0.00 0.00 59 1014.6
20210306133252 71 100 0.0 4.0 0.00 0.00 0.00 63 1014.8
20210306131816 70 84 0.0 1.0 0.00 0.00 0.00 66 1014.9
20210306130356 67 73 0.0 0.0 0.00 0.00 0.00 70 1014.7
20210306124656 66 73 0.0 0.0 0.00 0.00 0.00 70 1014.7
20210306123154 65 73 0.0 0.0 0.00 0.00 0.00 72 1014.8
20210306121645 64 73 0.0 0.0 0.00 0.00 0.00 72 1014.9
20210306120151 64 73 0.0 0.0 0.00 0.00 0.00 72 1014.7
20210306114641 64 73 0.0 0.0 0.00 0.00 0.00 71 1014.6
20210306113611 63 50 0.0 1.0 0.00 0.00 0.00 72 1014.7
20210306111608 61 330 0.0 0.0 0.00 0.00 0.00 75 1014.6
20210306110542 61 330 0.0 0.0 0.00 0.00 0.00 75 1014.8
20210306104730 61 330 0.0 0.0 0.00 0.00 0.00 75 1014.7
20210306103216 61 330 0.0 0.0 0.00 0.00 0.00 75 1014.5
20210306101622 62 330 0.0 0.0 0.00 0.00 0.00 74 1014.3
20210306100233 62 330 0.0 0.0 0.00 0.00 0.00 74 1014.1
20210306094649 63 330 0.0 0.0 0.00 0.00 0.00 74 1013.9
20210306093150 64 298 0.0 0.0 0.00 0.00 0.00 73 1013.6
20210306091600 64 298 0.0 0.0 0.00 0.00 0.00 73 1013.6
20210306090320 64 298 0.0 0.0 0.00 0.00 0.00 73 1013.4
20210306084615 63 112 0.0 0.0 0.00 0.00 0.00 74 1013.4
20210306083141 62 112 0.0 0.0 0.00 0.00 0.00 73 1013.2
20210306081554 63 112 0.0 0.0 0.00 0.00 0.00 73 1013.2
20210306080123 63 112 0.0 0.0 0.00 0.00 0.00 72 1013.5
20210306074625 63 112 0.0 0.0 0.00 0.00 0.00 72 1013.6
20210306073229 62 112 0.0 0.0 0.00 0.00 0.00 73 1013.5
20210306071602 63 112 0.0 0.0 0.00 0.00 0.00 71 1013.3
20210306070140 64 112 0.0 0.0 0.00 0.00 0.00 71 1013.5
20210306064554 64 112 0.0 0.0 0.00 0.00 0.00 71 1014.1
20210306063228 64 112 0.0 0.0 0.00 0.00 0.00 70 1014.2
20210306061547 65 112 0.0 0.0 0.00 0.00 0.00 69 1014.4
20210306060110 66 112 0.0 0.0 0.00 0.00 0.00 68 1014.1
20210306054531 66 112 0.0 0.0 0.00 0.00 0.00 68 1013.7
20210306053045 66 112 0.0 0.0 0.00 0.00 0.00 68 1013.7
20210306051522 67 112 0.0 1.0 0.00 0.00 0.00 67 1013.9
20210306050157 66 114 0.0 0.0 0.00 0.00 0.00 68 1013.8